Terminal Aerodrome Forecast
Issued by NWS New Orleans/Baton Rouge, LA

Home | Current Version | Previous Version | Text Only | Print | Product List | Glossary On
Versions: 1 2 3 4 5 6 7 8 9 10 11 12 13 14 15 16 17 18 19 20 21 22 23 24 25 26 27 28 29 30 31 32 33 34 35 36 37 38 39 40
000
FTUS44 KLIX 262335
TAFNEW
TAF
KNEW 262335Z 2700/2724 18008KT P6SM BKN200
     FM270200 30012KT P6SM VCSH BKN015
     FM270500 34018KT P6SM OVC008
     FM271200 35017KT P6SM FEW200=

USA.gov is the U.S. government's official web portal to all federal, state and local government web resources and services.